createdAt,value
2023-03-03T00:01:05.060Z,1.60
2023-03-03T00:03:33.512Z,2.90
2023-03-03T00:06:01.362Z,1.63
2023-03-03T00:08:29.249Z,2.92
2023-03-03T00:10:57.014Z,1.30
2023-03-03T00:13:27.788Z,1.80
2023-03-03T00:16:13.665Z,1.85
2023-03-03T00:18:44.150Z,3.08
2023-03-03T00:21:29.303Z,1.73
2023-03-03T00:24:11.932Z,2.03
2023-03-03T00:26:41.809Z,1.48
2023-03-03T00:29:30.788Z,2.05
2023-03-03T00:32:17.083Z,1.45
2023-03-03T00:34:45.577Z,2.05
2023-03-03T00:37:28.561Z,2.17
2023-03-03T00:40:03.818Z,1.58
2023-03-03T00:42:36.664Z,1.08
2023-03-03T00:45:23.462Z,4.00
2023-03-03T00:47:52.619Z,2.95
2023-03-03T00:50:32.401Z,1.65
2023-03-03T00:53:06.318Z,2.40
2023-03-03T00:55:35.556Z,0.95
2023-03-03T00:58:03.789Z,1.85
2023-03-03T01:00:33.945Z,2.45
2023-03-03T01:03:05.771Z,1.83
2023-03-03T01:05:33.844Z,3.15
2023-03-03T01:08:02.173Z,2.80
2023-03-03T01:10:33.239Z,1.70
2023-03-03T01:13:01.187Z,1.33
2023-03-03T01:15:29.210Z,1.90
2023-03-03T01:17:57.332Z,3.92
2023-03-03T01:20:26.730Z,1.75
2023-03-03T01:22:54.557Z,2.28
2023-03-03T01:25:22.544Z,2.20
2023-03-03T01:27:50.342Z,1.40
2023-03-03T01:30:18.223Z,1.58
2023-03-03T01:32:46.027Z,2.15
2023-03-03T01:35:13.816Z,3.00
2023-03-03T01:37:43.172Z,2.88
2023-03-03T01:40:16.056Z,1.23
2023-03-03T01:42:43.947Z,1.50
2023-03-03T01:45:16.916Z,2.78
2023-03-03T01:47:47.873Z,3.28
2023-03-03T01:50:18.832Z,2.85
2023-03-03T01:52:48.329Z,1.95
2023-03-03T01:55:21.814Z,1.40
2023-03-03T01:57:55.359Z,1.90
2023-03-03T02:00:23.493Z,3.60
2023-03-03T02:02:52.441Z,3.03
2023-03-03T02:05:20.646Z,4.63
2023-03-03T02:07:49.892Z,2.20
2023-03-03T02:10:19.574Z,1.55
2023-03-03T02:12:50.840Z,2.53
2023-03-03T02:15:23.737Z,2.00
2023-03-03T02:17:55.038Z,1.60
2023-03-03T02:20:36.315Z,2.47
2023-03-03T02:23:12.311Z,3.08
2023-03-03T02:25:48.390Z,4.47
2023-03-03T02:28:17.637Z,4.22
2023-03-03T02:30:51.031Z,2.42
2023-03-03T02:33:18.906Z,5.28
2023-03-03T02:35:46.789Z,2.85
2023-03-03T02:38:22.101Z,3.83
2023-03-03T02:41:00.188Z,2.45
2023-03-03T02:43:36.563Z,2.35
2023-03-03T02:46:04.460Z,4.18
2023-03-03T02:48:32.602Z,3.67
2023-03-03T02:51:00.677Z,2.70
2023-03-03T02:53:28.458Z,2.35
2023-03-03T02:55:56.260Z,2.85
2023-03-03T02:58:24.094Z,3.13
2023-03-03T03:00:53.303Z,3.78
2023-03-03T03:03:21.150Z,5.50
2023-03-03T03:05:48.987Z,2.83
2023-03-03T03:08:16.771Z,2.35
2023-03-03T03:10:44.755Z,2.20
2023-03-03T03:13:12.872Z,3.53
2023-03-03T03:15:40.661Z,2.78
2023-03-03T03:18:09.832Z,2.50
2023-03-03T03:20:40.015Z,3.67
2023-03-03T03:23:08.366Z,3.88
2023-03-03T03:25:37.933Z,4.68
2023-03-03T03:28:05.979Z,2.40
2023-03-03T03:30:33.793Z,3.78
2023-03-03T03:33:01.610Z,4.03
2023-03-03T03:35:30.836Z,1.83
2023-03-03T03:37:58.603Z,2.85
2023-03-03T03:40:26.703Z,3.20
2023-03-03T03:42:54.890Z,3.17
2023-03-03T03:45:22.901Z,2.92
2023-03-03T03:47:50.712Z,3.35
2023-03-03T03:50:18.693Z,3.08
2023-03-03T03:52:48.744Z,2.60
2023-03-03T03:55:16.677Z,4.68
2023-03-03T03:57:44.635Z,2.30
2023-03-03T04:00:13.508Z,3.10
2023-03-03T04:02:41.373Z,3.03
2023-03-03T04:05:09.999Z,4.72
2023-03-03T04:07:37.777Z,3.42
2023-03-03T04:10:08.175Z,3.50
2023-03-03T04:12:38.609Z,2.70
2023-03-03T04:15:08.453Z,2.42
2023-03-03T04:17:36.526Z,2.95
2023-03-03T04:20:05.944Z,4.03
2023-03-03T04:22:35.912Z,3.00
2023-03-03T04:25:06.008Z,3.33
2023-03-03T04:27:33.942Z,5.38
2023-03-03T04:30:02.226Z,3.85
2023-03-03T04:32:30.381Z,2.15
2023-03-03T04:35:07.218Z,2.60
2023-03-03T04:37:36.614Z,3.28
2023-03-03T04:40:07.753Z,4.05
2023-03-03T04:42:35.824Z,3.50
2023-03-03T04:45:03.807Z,2.53
2023-03-03T04:47:32.304Z,5.93
2023-03-03T04:50:00.765Z,3.95
2023-03-03T04:52:28.638Z,3.67
2023-03-03T04:54:56.492Z,3.40
2023-03-03T04:57:25.661Z,4.28
2023-03-03T04:59:53.692Z,5.20
2023-03-03T05:02:21.521Z,2.88
2023-03-03T05:04:49.365Z,3.65
2023-03-03T05:07:17.647Z,4.25
2023-03-03T05:09:45.440Z,5.75
2023-03-03T05:12:13.239Z,4.45
2023-03-03T05:14:42.564Z,3.90
2023-03-03T05:17:10.427Z,3.60
2023-03-03T05:19:38.235Z,2.83
2023-03-03T05:22:06.592Z,4.47
2023-03-03T05:24:34.407Z,5.68
2023-03-03T05:27:03.338Z,3.65
2023-03-03T05:29:31.867Z,5.57
2023-03-03T05:32:01.060Z,6.10
2023-03-03T05:34:28.867Z,4.60
2023-03-03T05:36:56.678Z,4.72
2023-03-03T05:39:24.640Z,5.50
2023-03-03T05:41:52.403Z,4.20
2023-03-03T05:44:20.777Z,4.45
2023-03-03T05:46:48.656Z,4.72
2023-03-03T05:49:17.868Z,5.88
2023-03-03T05:51:45.705Z,6.15
2023-03-03T05:54:13.663Z,6.03
2023-03-03T05:56:41.436Z,4.55
2023-03-03T05:59:09.230Z,6.65
2023-03-03T06:01:37.012Z,6.40
2023-03-03T06:04:04.881Z,6.07
2023-03-03T06:06:34.286Z,9.15
2023-03-03T06:09:02.071Z,6.28
2023-03-03T06:11:29.850Z,9.55
2023-03-03T06:13:57.694Z,7.93
2023-03-03T06:16:25.604Z,7.90
2023-03-03T06:18:53.498Z,10.02
2023-03-03T06:21:21.315Z,8.13
2023-03-03T06:23:50.690Z,6.82
2023-03-03T06:26:18.492Z,8.07
2023-03-03T06:28:46.713Z,8.48
2023-03-03T06:31:14.545Z,7.03
2023-03-03T06:33:42.642Z,5.82
2023-03-03T06:36:11.029Z,6.40
2023-03-03T06:38:38.854Z,7.28
2023-03-03T06:41:08.459Z,8.18
2023-03-03T06:43:36.266Z,9.00
2023-03-03T06:46:04.340Z,7.88
2023-03-03T06:48:33.300Z,8.25
2023-03-03T06:51:03.559Z,7.18
2023-03-03T06:53:34.816Z,5.97
2023-03-03T06:56:03.323Z,11.57
2023-03-03T06:58:33.409Z,9.13
2023-03-03T07:01:02.518Z,6.80
2023-03-03T07:03:34.871Z,7.30
2023-03-03T07:06:05.869Z,9.80
2023-03-03T07:08:33.980Z,7.65
2023-03-03T07:11:09.637Z,11.00
2023-03-03T07:13:47.095Z,10.38
2023-03-03T07:16:16.517Z,9.13
2023-03-03T07:18:50.913Z,8.52
2023-03-03T07:21:20.418Z,9.30
2023-03-03T07:23:50.668Z,7.57
2023-03-03T07:26:22.605Z,6.85
2023-03-03T07:28:55.252Z,8.43
2023-03-03T07:31:32.657Z,7.80
2023-03-03T07:34:01.735Z,7.07
2023-03-03T07:36:32.615Z,9.60
2023-03-03T07:39:03.158Z,5.53
2023-03-03T07:41:33.603Z,9.90
2023-03-03T07:44:06.542Z,7.72
2023-03-03T07:46:42.639Z,6.82
2023-03-03T07:49:22.522Z,7.50
2023-03-03T07:51:54.940Z,7.68
2023-03-03T07:54:31.059Z,7.07
2023-03-03T07:57:03.138Z,9.30
2023-03-03T07:59:37.923Z,9.82
2023-03-03T08:02:43.509Z,12.20
2023-03-03T08:05:28.866Z,6.50
2023-03-03T08:08:03.770Z,8.50
2023-03-03T08:10:37.770Z,6.53
2023-03-03T08:13:18.728Z,7.60
2023-03-03T08:15:50.579Z,8.02
2023-03-03T08:18:26.243Z,7.07
2023-03-03T08:20:57.181Z,10.10
2023-03-03T08:23:24.974Z,5.93
2023-03-03T08:25:53.637Z,6.15
2023-03-03T08:28:22.584Z,8.15
2023-03-03T08:31:02.659Z,7.03
2023-03-03T08:33:37.178Z,7.57
2023-03-03T08:36:05.558Z,8.55
2023-03-03T08:38:33.451Z,7.63
2023-03-03T08:41:01.345Z,6.47
2023-03-03T08:43:29.645Z,6.15
2023-03-03T08:46:01.254Z,7.18
2023-03-03T08:48:30.250Z,5.78
2023-03-03T08:50:58.277Z,5.22
2023-03-03T08:53:26.194Z,5.30
2023-03-03T08:55:53.992Z,6.22
2023-03-03T08:58:33.449Z,9.55
2023-03-03T09:01:04.899Z,5.53
2023-03-03T09:03:32.785Z,5.63
2023-03-03T09:06:00.609Z,2.58
2023-03-03T09:08:28.442Z,5.07
2023-03-03T09:10:56.224Z,4.43
2023-03-03T09:13:24.001Z,5.10
2023-03-03T09:15:52.155Z,4.60
2023-03-03T09:18:23.369Z,5.85
2023-03-03T09:20:52.690Z,6.60
2023-03-03T09:23:38.741Z,6.28
2023-03-03T09:26:28.474Z,9.30
2023-03-03T09:28:59.376Z,6.63
2023-03-03T09:31:28.863Z,5.90
2023-03-03T09:33:59.416Z,8.05
2023-03-03T09:36:29.907Z,4.97
2023-03-03T09:38:59.025Z,3.33
2023-03-03T09:41:45.713Z,3.65
2023-03-03T09:44:57.519Z,4.13
2023-03-03T09:47:50.803Z,6.30
2023-03-03T09:50:29.837Z,4.47
2023-03-03T09:53:10.973Z,3.83
2023-03-03T09:55:46.017Z,2.33
2023-03-03T09:58:37.398Z,4.47
2023-03-03T10:01:31.142Z,2.60
2023-03-03T10:04:36.396Z,4.20
2023-03-03T10:07:26.918Z,2.67
2023-03-03T10:10:15.692Z,4.28
2023-03-03T10:12:53.724Z,3.67
2023-03-03T10:15:40.468Z,2.25
2023-03-03T10:18:19.369Z,2.90
2023-03-03T10:20:58.747Z,1.50
2023-03-03T10:23:49.704Z,5.15
2023-03-03T10:26:41.985Z,4.07
2023-03-03T10:29:34.012Z,3.63
2023-03-03T10:32:38.189Z,2.05
2023-03-03T10:35:33.060Z,3.90
2023-03-03T10:38:18.871Z,1.65
2023-03-03T10:40:54.348Z,1.63
2023-03-03T10:43:41.998Z,2.58
2023-03-03T10:46:27.830Z,1.98
2023-03-03T10:49:16.252Z,3.13
2023-03-03T10:51:55.812Z,2.38
2023-03-03T10:54:34.685Z,4.35
2023-03-03T10:57:11.333Z,1.40
2023-03-03T10:59:52.511Z,4.35
2023-03-03T11:02:26.117Z,1.45
2023-03-03T11:05:17.477Z,1.30
2023-03-03T11:07:49.780Z,1.60
2023-03-03T11:10:29.392Z,1.13
2023-03-03T11:13:11.230Z,2.60
2023-03-03T11:15:51.772Z,4.13
2023-03-03T11:18:44.033Z,1.40
2023-03-03T11:21:18.846Z,3.97
2023-03-03T11:24:20.392Z,1.25
2023-03-03T11:27:22.071Z,1.77
2023-03-03T11:30:26.708Z,4.07
2023-03-03T11:33:04.685Z,2.35
2023-03-03T11:35:38.931Z,1.25
2023-03-03T11:38:21.450Z,1.60
2023-03-03T11:40:52.686Z,2.13
2023-03-03T11:43:36.595Z,2.50
2023-03-03T11:46:09.911Z,0.95
2023-03-03T11:48:44.760Z,3.65
2023-03-03T11:51:16.848Z,2.50
2023-03-03T11:54:03.809Z,2.63
2023-03-03T11:56:39.691Z,0.93
2023-03-03T11:59:21.330Z,1.98
2023-03-03T12:01:56.909Z,0.98
2023-03-03T12:04:32.721Z,1.25
2023-03-03T12:07:19.430Z,3.00
2023-03-03T12:10:03.134Z,1.58
2023-03-03T12:12:35.549Z,1.20
2023-03-03T12:15:15.619Z,2.22
2023-03-03T12:18:08.312Z,1.15
2023-03-03T12:20:46.968Z,1.13
2023-03-03T12:23:31.084Z,1.55
2023-03-03T12:26:04.554Z,0.70
2023-03-03T12:28:38.829Z,0.93
2023-03-03T12:31:24.983Z,2.58
2023-03-03T12:33:57.773Z,1.45
2023-03-03T12:36:40.150Z,1.42
2023-03-03T12:39:13.745Z,2.65
2023-03-03T12:41:49.149Z,1.10
2023-03-03T12:44:22.853Z,1.00
2023-03-03T12:46:59.138Z,1.13
2023-03-03T12:49:43.459Z,1.45
2023-03-03T12:52:27.724Z,1.67
2023-03-03T12:55:06.653Z,2.28
2023-03-03T12:57:41.382Z,1.60
2023-03-03T13:00:29.631Z,1.73
2023-03-03T13:03:08.990Z,1.95
2023-03-03T13:05:49.671Z,2.22
2023-03-03T13:08:32.747Z,0.90
2023-03-03T13:11:17.954Z,1.40
2023-03-03T13:13:51.726Z,0.60
2023-03-03T13:16:40.349Z,0.70
2023-03-03T13:19:12.585Z,1.95
2023-03-03T13:21:48.217Z,1.25
2023-03-03T13:24:22.289Z,1.48
2023-03-03T13:26:56.301Z,0.90
2023-03-03T13:29:29.182Z,1.40
2023-03-03T13:32:00.659Z,1.65
2023-03-03T13:34:40.555Z,0.90
2023-03-03T13:37:16.852Z,2.28
2023-03-03T13:39:57.138Z,1.38
2023-03-03T13:42:30.881Z,1.52
2023-03-03T13:44:59.793Z,1.88
2023-03-03T13:47:39.856Z,1.10
2023-03-03T13:50:23.370Z,1.40
2023-03-03T13:53:12.071Z,2.00
2023-03-03T13:55:44.645Z,1.25
2023-03-03T13:58:22.545Z,0.93
2023-03-03T14:01:01.357Z,1.20
2023-03-03T14:03:53.660Z,1.25
2023-03-03T14:06:24.149Z,0.60
2023-03-03T14:09:10.448Z,1.23
2023-03-03T14:11:46.854Z,1.20
2023-03-03T14:14:38.437Z,4.70
2023-03-03T14:17:13.702Z,1.67
2023-03-03T14:19:48.092Z,0.90
2023-03-03T14:22:23.945Z,2.13
2023-03-03T14:25:01.930Z,1.10
2023-03-03T14:27:36.832Z,1.83
2023-03-03T14:30:30.757Z,0.85
2023-03-03T14:33:04.721Z,2.85
2023-03-03T14:35:35.413Z,1.45
2023-03-03T14:38:04.427Z,3.08
2023-03-03T14:40:35.027Z,3.22
2023-03-03T14:43:07.931Z,1.85
2023-03-03T14:45:37.956Z,1.27
2023-03-03T14:48:16.439Z,2.22
2023-03-03T14:50:49.829Z,2.17
2023-03-03T14:53:23.938Z,1.35
2023-03-03T14:55:54.554Z,1.92
2023-03-03T14:58:29.150Z,0.80
2023-03-03T15:01:15.391Z,2.63
2023-03-03T15:03:49.261Z,2.40
2023-03-03T15:06:42.571Z,1.77
2023-03-03T15:09:38.412Z,2.45
2023-03-03T15:12:22.237Z,2.65
2023-03-03T15:14:51.603Z,1.83
2023-03-03T15:17:28.742Z,1.67
2023-03-03T15:20:14.678Z,1.73
2023-03-03T15:22:49.171Z,2.92
2023-03-03T15:25:34.782Z,2.97
2023-03-03T15:28:23.491Z,1.42
2023-03-03T15:30:58.397Z,1.23
2023-03-03T15:33:34.503Z,1.80
2023-03-03T15:36:08.884Z,3.08
2023-03-03T15:38:46.919Z,2.90
2023-03-03T15:41:26.656Z,1.27
2023-03-03T15:44:06.729Z,1.23
2023-03-03T15:46:53.037Z,2.35
2023-03-03T15:49:40.054Z,2.08
2023-03-03T15:52:23.700Z,5.05
2023-03-03T15:55:03.424Z,2.00
2023-03-03T15:57:41.175Z,1.10
2023-03-03T16:00:29.306Z,1.58
2023-03-03T16:03:00.613Z,1.38
2023-03-03T16:05:32.404Z,2.58
2023-03-03T16:08:05.858Z,2.38
2023-03-03T16:10:43.871Z,1.52
2023-03-03T16:13:23.724Z,1.13
2023-03-03T16:16:04.477Z,3.40
2023-03-03T16:18:48.050Z,1.00
2023-03-03T16:21:27.338Z,0.80
2023-03-03T16:23:59.508Z,1.48
2023-03-03T16:26:43.302Z,1.23
2023-03-03T16:29:36.345Z,1.15
2023-03-03T16:32:12.700Z,1.65
2023-03-03T16:34:47.061Z,1.13
2023-03-03T16:37:23.496Z,1.27
2023-03-03T16:39:56.517Z,0.80
2023-03-03T16:42:29.207Z,3.35
2023-03-03T16:45:07.364Z,0.80
2023-03-03T16:47:53.921Z,1.38
2023-03-03T16:50:29.365Z,1.00
2023-03-03T16:53:06.634Z,2.08
2023-03-03T16:55:39.614Z,1.02
2023-03-03T16:58:19.518Z,1.48
2023-03-03T17:00:56.067Z,1.40
2023-03-03T17:03:39.562Z,1.00
2023-03-03T17:06:13.079Z,1.00
2023-03-03T17:09:31.499Z,1.45
2023-03-03T17:12:19.603Z,1.92
2023-03-03T17:15:02.489Z,1.00
2023-03-03T17:17:40.473Z,1.08
2023-03-03T17:20:24.029Z,2.90
2023-03-03T17:23:06.258Z,1.00
2023-03-03T17:25:42.485Z,2.20
2023-03-03T17:28:24.964Z,1.58
2023-03-03T17:31:00.505Z,1.92
2023-03-03T17:33:40.873Z,1.70
2023-03-03T17:36:33.831Z,1.70
2023-03-03T17:39:13.258Z,3.35
2023-03-03T17:41:50.179Z,3.03
2023-03-03T17:44:24.786Z,1.23
2023-03-03T17:46:55.447Z,1.73
2023-03-03T17:49:47.105Z,1.45
2023-03-03T17:52:32.327Z,2.80
2023-03-03T17:55:24.638Z,2.45
2023-03-03T17:58:05.425Z,1.90
2023-03-03T18:00:44.702Z,1.98
2023-03-03T18:03:32.867Z,1.73
2023-03-03T18:06:24.986Z,3.60
2023-03-03T18:09:17.838Z,2.30
2023-03-03T18:12:01.038Z,1.75
2023-03-03T18:15:06.765Z,1.75
2023-03-03T18:17:37.339Z,4.90
2023-03-03T18:20:38.990Z,3.30
2023-03-03T18:23:30.737Z,3.50
2023-03-03T18:26:00.954Z,1.77
2023-03-03T18:28:45.140Z,3.90
2023-03-03T18:31:24.291Z,1.55
2023-03-03T18:34:10.262Z,1.60
2023-03-03T18:36:54.149Z,3.13
2023-03-03T18:39:38.880Z,2.03
2023-03-03T18:42:12.034Z,2.50
2023-03-03T18:44:40.076Z,4.32
2023-03-03T18:47:08.167Z,4.15
2023-03-03T18:50:04.182Z,5.15
2023-03-03T18:52:33.730Z,3.42
2023-03-03T18:55:27.070Z,3.60
2023-03-03T18:58:46.273Z,5.85
2023-03-03T19:01:37.809Z,2.28
2023-03-03T19:04:23.885Z,4.40
2023-03-03T19:07:26.363Z,4.35
2023-03-03T19:10:01.532Z,3.53
2023-03-03T19:12:51.559Z,2.92
2023-03-03T19:15:49.873Z,3.80
2023-03-03T19:18:23.869Z,3.92
2023-03-03T19:20:57.320Z,3.88
2023-03-03T19:23:34.842Z,4.75
2023-03-03T19:26:50.181Z,2.53
2023-03-03T19:29:43.162Z,5.60
2023-03-03T19:32:43.773Z,5.53
2023-03-03T19:35:23.774Z,3.00
2023-03-03T19:38:03.435Z,7.50
2023-03-03T19:40:38.266Z,5.72
2023-03-03T19:43:16.350Z,4.60
2023-03-03T19:46:00.144Z,4.05
2023-03-03T19:48:36.857Z,4.88
2023-03-03T19:51:15.867Z,3.95
2023-03-03T19:53:54.083Z,4.40
2023-03-03T19:56:31.325Z,6.22
2023-03-03T19:59:20.234Z,7.88
2023-03-03T20:01:59.649Z,6.65
2023-03-03T20:04:53.138Z,6.25
2023-03-03T20:07:31.209Z,9.05
2023-03-03T20:10:10.250Z,4.55
2023-03-03T20:12:53.247Z,7.45
2023-03-03T20:15:26.211Z,5.18
2023-03-03T20:18:03.596Z,8.43
2023-03-03T20:21:00.689Z,7.55
2023-03-03T20:23:33.776Z,7.40
2023-03-03T20:26:08.677Z,7.07
2023-03-03T20:29:13.904Z,6.55
2023-03-03T20:31:50.957Z,7.32
2023-03-03T20:34:27.570Z,6.57
2023-03-03T20:37:05.201Z,10.77
2023-03-03T20:39:44.528Z,4.63
2023-03-03T20:42:27.003Z,8.32
2023-03-03T20:45:06.052Z,5.53
2023-03-03T20:47:40.676Z,4.47
2023-03-03T20:50:22.645Z,10.15
2023-03-03T20:53:02.816Z,6.97
2023-03-03T20:55:40.537Z,8.02
2023-03-03T20:58:17.766Z,6.57
2023-03-03T21:00:53.591Z,7.78
2023-03-03T21:03:27.278Z,7.88
2023-03-03T21:05:58.871Z,7.18
2023-03-03T21:08:46.472Z,7.70
2023-03-03T21:11:15.727Z,6.43
2023-03-03T21:13:46.016Z,5.00
2023-03-03T21:16:30.168Z,8.45
2023-03-03T21:18:59.226Z,9.52
2023-03-03T21:21:30.275Z,5.30
2023-03-03T21:23:59.243Z,5.95
2023-03-03T21:26:49.208Z,6.10
2023-03-03T21:29:24.337Z,9.07
2023-03-03T21:31:53.858Z,6.60
2023-03-03T21:34:25.596Z,9.45
2023-03-03T21:36:54.235Z,7.53
2023-03-03T21:39:28.276Z,6.07
2023-03-03T21:41:58.585Z,7.93
2023-03-03T21:44:40.266Z,8.32
2023-03-03T21:47:10.004Z,7.82
2023-03-03T21:49:41.874Z,6.72
2023-03-03T21:52:09.976Z,6.45
2023-03-03T21:54:37.857Z,9.75
2023-03-03T21:57:05.868Z,8.63
2023-03-03T21:59:33.776Z,8.73
2023-03-03T22:02:02.906Z,8.63
2023-03-03T22:04:30.922Z,9.10
2023-03-03T22:06:58.921Z,9.10
2023-03-03T22:09:27.183Z,9.88
2023-03-03T22:11:55.047Z,10.27
2023-03-03T22:14:23.103Z,9.05
2023-03-03T22:16:50.904Z,9.82
2023-03-03T22:19:20.111Z,6.82
2023-03-03T22:21:48.101Z,10.20
2023-03-03T22:24:15.967Z,7.28
2023-03-03T22:26:43.946Z,12.23
2023-03-03T22:29:11.805Z,8.68
2023-03-03T22:31:39.777Z,7.85
2023-03-03T22:34:07.758Z,7.25
2023-03-03T22:36:36.945Z,8.85
2023-03-03T22:39:04.791Z,7.60
2023-03-03T22:41:32.738Z,7.20
2023-03-03T22:44:00.610Z,7.53
2023-03-03T22:46:28.424Z,6.75
2023-03-03T22:48:56.258Z,5.93
2023-03-03T22:51:24.082Z,3.70
2023-03-03T22:53:53.233Z,12.23
2023-03-03T22:56:21.060Z,4.10
2023-03-03T22:58:49.134Z,5.93
2023-03-03T23:01:16.957Z,7.15
2023-03-03T23:03:44.790Z,6.55
2023-03-03T23:06:12.629Z,12.38
2023-03-03T23:08:40.469Z,6.15
2023-03-03T23:11:09.638Z,6.97
2023-03-03T23:13:37.483Z,7.97
2023-03-03T23:16:06.049Z,5.30
2023-03-03T23:18:33.952Z,6.78
2023-03-03T23:21:01.809Z,7.10
2023-03-03T23:23:30.499Z,6.93
2023-03-03T23:25:58.311Z,7.15
2023-03-03T23:28:27.575Z,7.88
2023-03-03T23:30:55.375Z,8.55
2023-03-03T23:33:23.222Z,6.13
2023-03-03T23:35:51.109Z,6.72
2023-03-03T23:38:18.956Z,6.88
2023-03-03T23:40:47.568Z,5.70
2023-03-03T23:43:15.445Z,8.23
2023-03-03T23:45:44.591Z,10.00
2023-03-03T23:48:12.525Z,7.03
2023-03-03T23:50:40.353Z,8.07
2023-03-03T23:53:08.994Z,6.95
2023-03-03T23:55:37.507Z,7.72
2023-03-03T23:58:05.512Z,6.03
